Time;durP1;ratioP1;P1;durP2;ratioP2;P2;SDS_P1;SDS_P2;PMS_P1;PMS_P2;Temp;Humidity;BMP_temperature;BMP_pressure;BME280_temperature;BME280_humidity;BME280_pressure;Samples;Min_cycle;Max_cycle;Signal;HPM_P1;HPM_P2
2021/01/16 00:00:35;;;;;;;62.03;36.17;;;102.50;1484.80;;;;;;4916025;29;20055;-71
2021/01/16 00:03:01;;;;;;;58.35;34.72;;;102.40;1484.80;;;;;;4915819;29;20028;-70
2021/01/16 00:05:28;;;;;;;64.93;35.60;;;77.60;1510.40;;;;;;4916200;29;20028;-70
2021/01/16 00:08:04;;;;;;;55.33;33.45;;;102.50;1484.80;;;;;;4915578;29;20123;-70
2021/01/16 00:10:31;;;;;;;58.78;33.53;;;102.40;1484.80;;;;;;4915272;29;20510;-70
2021/01/16 00:12:57;;;;;;;62.42;34.85;;;102.40;1510.40;;;;;;4915492;29;20043;-70
2021/01/16 00:15:24;;;;;;;76.18;42.78;;;102.50;1484.80;;;;;;4915031;29;20387;-69
2021/01/16 00:17:59;;;;;;;91.43;50.33;;;102.60;1433.60;;;;;;4914472;29;20103;-70
2021/01/16 00:20:26;;;;;;;102.28;57.60;;;102.80;1433.60;;;;;;4911184;29;20416;-71
2021/01/16 00:22:52;;;;;;;119.15;68.78;;;102.80;1433.60;;;;;;4915625;29;20047;-69
2021/01/16 00:25:19;;;;;;;101.90;58.40;;;102.90;1433.60;;;;;;4915646;29;20031;-69
2021/01/16 00:27:45;;;;;;;72.35;40.97;;;102.90;1433.60;;;;;;4915962;29;20024;-69
2021/01/16 00:30:12;;;;;;;60.72;34.95;;;102.60;1459.20;;;;;;4915500;29;20032;-69
2021/01/16 00:32:39;;;;;;;57.97;32.80;;;77.50;1484.80;;;;;;4915626;29;20036;-71
2021/01/16 00:35:16;;;;;;;56.85;36.70;;;77.50;1510.40;;;;;;4915240;29;20044;-68
2021/01/16 00:37:43;;;;;;;80.50;46.67;;;77.70;1484.80;;;;;;4915534;29;20051;-68
2021/01/16 00:40:11;;;;;;;90.93;52.85;;;77.70;1484.80;;;;;;4915879;29;20020;-69
2021/01/16 00:42:44;;;;;;;98.32;56.42;;;102.50;1484.80;;;;;;4915670;29;20032;-69
2021/01/16 00:45:11;;;;;;;114.30;62.33;;;102.50;1484.80;;;;;;4915909;29;20036;-69
2021/01/16 00:47:38;;;;;;;115.50;66.35;;;102.50;1484.80;;;;;;4915429;29;20039;-69
2021/01/16 00:50:06;;;;;;;104.95;60.00;;;102.60;1459.20;;;;;;4915149;29;20106;-70
2021/01/16 00:52:32;;;;;;;115.32;63.92;;;102.60;1459.20;;;;;;4915561;29;20402;-69
2021/01/16 00:54:58;;;;;;;118.85;66.15;;;102.70;1459.20;;;;;;4914063;29;20109;-69
2021/01/16 00:57:25;;;;;;;109.47;61.60;;;102.70;1459.20;;;;;;4915519;29;20108;-69
2021/01/16 00:59:54;;;;;;;130.68;69.45;;;102.60;1459.20;;;;;;4915271;29;20048;-70
2021/01/16 01:02:20;;;;;;;125.10;69.10;;;102.70;1459.20;;;;;;4915439;29;20598;-69
2021/01/16 01:04:46;;;;;;;107.38;54.92;;;102.50;1459.20;;;;;;4915291;29;20071;-70
2021/01/16 01:07:12;;;;;;;74.63;40.75;;;102.40;1484.80;;;;;;4915406;29;20393;-70
2021/01/16 01:09:40;;;;;;;54.33;31.83;;;77.70;1484.80;;;;;;4915403;29;20498;-70
2021/01/16 01:12:06;;;;;;;48.22;29.50;;;77.60;1510.40;;;;;;4915337;29;20550;-69
2021/01/16 01:14:33;;;;;;;54.63;35.75;;;77.60;1536.00;;;;;;4915324;29;20036;-69
2021/01/16 01:16:59;;;;;;;60.33;36.42;;;77.40;1510.40;;;;;;4914928;29;20016;-71
2021/01/16 01:19:25;;;;;;;70.45;40.85;;;77.20;1536.00;;;;;;4898394;29;20546;-70
2021/01/16 01:21:51;;;;;;;65.70;39.33;;;;;;;;;;4899602;29;20048;-69
2021/01/16 01:24:16;;;;;;;69.57;40.20;;;51.50;1664.00;;;;;;4913109;29;20057;-69
2021/01/16 01:26:43;;;;;;;56.45;33.42;;;51.60;1664.00;;;;;;4918486;29;20056;-68
2021/01/16 01:29:09;;;;;;;63.92;37.05;;;52.10;1612.80;;;;;;4918639;29;20028;-70
2021/01/16 01:31:37;;;;;;;62.72;37.67;;;52.10;1587.20;;;;;;4918236;29;20032;-69
2021/01/16 01:34:04;;;;;;;61.88;37.35;;;51.40;1664.00;;;;;;4918446;29;20040;-69
2021/01/16 01:36:30;;;;;;;68.05;39.80;;;51.90;1612.80;;;;;;4918259;29;20056;-69
2021/01/16 01:38:56;;;;;;;76.07;44.75;;;76.80;1587.20;;;;;;4918479;29;20364;-71
2021/01/16 01:41:22;;;;;;;81.50;47.13;;;51.90;1612.80;;;;;;4918841;29;20043;-69
2021/01/16 01:43:48;;;;;;;83.63;47.47;;;51.70;1638.40;;;;;;4918568;29;20032;-68
2021/01/16 01:46:15;;;;;;;83.38;46.97;;;52.00;1638.40;;;;;;4918353;29;20020;-70
2021/01/16 01:48:41;;;;;;;86.85;48.78;;;77.10;1587.20;;;;;;4918385;29;20028;-70
2021/01/16 01:51:08;;;;;;;81.43;45.80;;;77.30;1536.00;;;;;;4918540;29;20028;-68
2021/01/16 01:53:36;;;;;;;87.78;45.53;;;77.40;1536.00;;;;;;4918444;29;20452;-69
2021/01/16 01:56:03;;;;;;;81.10;43.55;;;77.50;1510.40;;;;;;4918549;29;20052;-69
2021/01/16 01:58:30;;;;;;;88.75;52.50;;;77.60;1484.80;;;;;;4918460;29;20059;-68
2021/01/16 02:00:58;;;;;;;92.70;51.47;;;77.30;1536.00;;;;;;4918337;29;20024;-71
2021/01/16 02:03:25;;;;;;;97.07;50.00;;;77.40;1536.00;;;;;;4916959;29;20119;-69
2021/01/16 02:05:54;;;;;;;71.88;40.58;;;77.40;1510.40;;;;;;4918188;29;20058;-69
2021/01/16 02:08:21;;;;;;;73.85;39.42;;;77.20;1536.00;;;;;;4918271;29;20146;-69
2021/01/16 02:10:47;;;;;;;67.13;36.45;;;77.40;1510.40;;;;;;4918151;29;20487;-70
2021/01/16 02:13:13;;;;;;;67.15;34.78;;;77.50;1510.40;;;;;;4918171;29;20074;-70
2021/01/16 02:16:09;;;;;;;61.90;34.03;;;77.20;1536.00;;;;;;4914869;29;20035;-69
2021/01/16 02:18:36;;;;;;;64.65;34.40;;;77.20;1536.00;;;;;;4913726;29;20068;-69
2021/01/16 02:21:04;;;;;;;68.10;37.40;;;77.40;1536.00;;;;;;4917814;29;20030;-69
2021/01/16 02:23:30;;;;;;;64.38;36.22;;;77.30;1536.00;;;;;;4917404;29;20457;-70
2021/01/16 02:26:07;;;;;;;65.10;38.38;;;77.20;1536.00;;;;;;4917822;29;20052;-71
2021/01/16 02:28:35;;;;;;;76.65;40.90;;;77.20;1536.00;;;;;;4917535;29;20059;-68
2021/01/16 02:31:04;;;;;;;90.97;49.97;;;77.30;1510.40;;;;;;4914407;29;20028;-69
2021/01/16 02:33:31;;;;;;;95.32;52.78;;;77.40;1510.40;;;;;;4916311;29;20414;-68
2021/01/16 02:36:15;;;;;;;99.63;57.08;;;77.30;1510.40;;;;;;4916775;29;20039;-70
2021/01/16 02:38:58;;;;;;;87.68;51.80;;;77.20;1536.00;;;;;;4917453;29;20043;-67
2021/01/16 02:41:40;;;;;;;88.85;50.92;;;77.20;1536.00;;;;;;4917561;29;20383;-68
2021/01/16 02:44:15;;;;;;;;;;;77.10;1536.00;;;;;;4917609;29;20025;-68
2021/01/16 02:46:57;;;;;;;80.25;47.15;;;52.10;1561.60;;;;;;4923525;29;20348;-71
2021/01/16 02:49:29;;;;;;;78.25;45.67;;;77.00;1561.60;;;;;;4920954;29;20024;-68
2021/01/16 02:52:13;;;;;;;110.07;60.67;;;77.10;1536.00;;;;;;4931339;29;20088;-69
2021/01/16 02:54:42;;;;;;;107.10;59.88;;;77.20;1510.40;;;;;;4917391;29;20390;-70
2021/01/16 02:57:09;;;;;;;60.65;35.83;;;77.20;1510.40;;;;;;4915746;29;20020;-74
2021/01/16 02:59:37;;;;;;;62.45;37.70;;;76.90;1536.00;;;;;;4917233;29;20051;-80
2021/01/16 03:02:07;;;;;;;67.05;39.20;;;76.90;1561.60;;;;;;4917733;29;20447;-77
2021/01/16 03:04:33;;;;;;;85.47;49.35;;;52.10;1561.60;;;;;;4917216;29;20056;-80
2021/01/16 03:07:00;;;;;;;98.97;55.35;;;51.40;1664.00;;;;;;4917696;29;20514;-74
2021/01/16 03:09:29;;;;;;;94.10;55.10;;;26.30;1664.00;;;;;;4917298;29;20028;-74
2021/01/16 03:11:57;;;;;;;89.57;52.88;;;26.10;1689.60;;;;;;4917265;29;20024;-74
2021/01/16 03:14:26;;;;;;;87.00;50.38;;;26.30;1689.60;;;;;;4917535;29;20028;-74
2021/01/16 03:16:58;;;;;;;69.05;41.28;;;51.30;1664.00;;;;;;4917233;29;20024;-75
2021/01/16 03:19:30;;;;;;;72.07;39.30;;;51.80;1612.80;;;;;;4917540;29;20372;-70
2021/01/16 03:21:55;;;;;;;;;;;51.90;1587.20;;;;;;4917788;29;20398;-70
2021/01/16 03:24:21;;;;;;;68.65;38.92;;;52.00;1587.20;;;;;;4916379;29;19914;-69
2021/01/16 03:26:46;;;;;;;68.40;39.45;;;52.00;1587.20;;;;;;4917507;29;20032;-70
2021/01/16 03:29:12;;;;;;;62.08;35.03;;;52.00;1587.20;;;;;;4915640;29;20111;-70
2021/01/16 03:31:38;;;;;;;75.32;40.30;;;52.10;1561.60;;;;;;4916784;29;20032;-70
2021/01/16 03:34:04;;;;;;;87.40;40.50;;;76.80;1536.00;;;;;;4916775;29;20067;-69
2021/01/16 03:36:29;;;;;;;84.18;42.72;;;76.90;1536.00;;;;;;4915610;29;20056;-69
2021/01/16 03:38:55;;;;;;;81.13;41.78;;;76.90;1536.00;;;;;;4916750;29;20025;-69
2021/01/16 03:41:21;;;;;;;74.72;41.00;;;76.80;1561.60;;;;;;4917176;29;20028;-69
2021/01/16 03:43:46;;;;;;;68.88;38.33;;;52.00;1561.60;;;;;;4916674;29;20032;-70
2021/01/16 03:46:12;;;;;;;48.92;30.23;;;52.10;1561.60;;;;;;4916872;29;20060;-70
2021/01/16 03:48:39;;;;;;;52.80;29.35;;;52.00;1561.60;;;;;;4916720;29;20436;-70
2021/01/16 03:51:05;;;;;;;47.17;28.02;;;52.10;1561.60;;;;;;4916834;29;20020;-70
2021/01/16 03:53:31;;;;;;;45.03;25.83;;;52.10;1561.60;;;;;;4916586;29;20044;-70
2021/01/16 03:55:57;;;;;;;81.07;40.28;;;76.90;1561.60;;;;;;4916622;29;20095;-70
2021/01/16 03:58:22;;;;;;;45.35;27.55;;;76.80;1561.60;;;;;;4916796;29;20063;-69
2021/01/16 04:00:48;;;;;;;37.28;22.25;;;77.10;1536.00;;;;;;4916565;29;20060;-70
2021/01/16 04:03:14;;;;;;;30.00;20.08;;;77.20;1510.40;;;;;;4916612;29;20032;-69
2021/01/16 04:05:39;;;;;;;37.40;23.92;;;77.20;1510.40;;;;;;4916356;29;20120;-70
2021/01/16 04:08:05;;;;;;;35.47;21.77;;;77.20;1510.40;;;;;;4916804;29;20088;-70
2021/01/16 04:10:31;;;;;;;42.25;23.65;;;76.90;1536.00;;;;;;4916604;29;20035;-71
2021/01/16 04:12:56;;;;;;;39.58;23.30;;;77.00;1536.00;;;;;;4916718;29;20039;-72
2021/01/16 04:15:22;;;;;;;42.22;24.83;;;52.10;1561.60;;;;;;4916418;29;20079;-72
2021/01/16 04:17:48;;;;;;;38.42;24.58;;;51.80;1612.80;;;;;;4916587;29;20063;-71
2021/01/16 04:20:13;;;;;;;33.50;21.63;;;51.60;1612.80;;;;;;4916342;29;20479;-75
2021/01/16 04:22:39;;;;;;;36.40;24.13;;;26.30;1664.00;;;;;;4916503;29;20039;-75
2021/01/16 04:25:06;;;;;;;38.08;24.98;;;26.00;1715.20;;;;;;4916564;29;20089;-73
2021/01/16 04:27:33;;;;;;;45.63;26.85;;;26.00;1689.60;;;;;;4916106;29;20431;-74
2021/01/16 04:30:03;;;;;;;46.67;29.58;;;25.80;1715.20;;;;;;4916506;29;20024;-74
2021/01/16 04:32:29;;;;;;;51.75;30.30;;;0.90;1766.40;;;;;;4914822;29;20042;-73
2021/01/16 04:34:54;;;;;;;56.45;32.75;;;0.90;1766.40;;;;;;4914426;29;20052;-74
2021/01/16 04:37:20;;;;;;;58.70;34.53;;;26.20;1689.60;;;;;;4916220;29;20390;-72
2021/01/16 04:39:46;;;;;;;55.97;35.63;;;26.40;1664.00;;;;;;4916458;29;20025;-72
2021/01/16 04:42:15;;;;;;;62.35;36.10;;;26.30;1689.60;;;;;;4916177;29;20032;-71
2021/01/16 04:44:44;;;;;;;65.85;40.47;;;26.40;1689.60;;;;;;4916462;29;20036;-70
2021/01/16 04:47:20;;;;;;;81.07;45.45;;;51.30;1664.00;;;;;;4916334;29;20047;-69
2021/01/16 04:49:46;;;;;;;84.30;51.80;;;51.70;1638.40;;;;;;4916295;29;20035;-69
2021/01/16 04:52:12;;;;;;;91.97;53.90;;;51.90;1612.80;;;;;;4916237;29;20036;-69
2021/01/16 04:54:41;;;;;;;94.80;56.42;;;52.00;1612.80;;;;;;4916096;29;20020;-70
2021/01/16 04:57:12;;;;;;;98.13;60.67;;;51.70;1638.40;;;;;;4918686;29;20032;-69
2021/01/16 04:59:37;;;;;;;133.45;79.60;;;51.60;1638.40;;;;;;4919688;29;20502;-69
2021/01/16 05:02:09;;;;;;;130.57;80.00;;;51.60;1664.00;;;;;;4919463;29;20040;-69
2021/01/16 05:04:39;;;;;;;126.88;72.30;;;26.40;1689.60;;;;;;4919779;29;20107;-69
2021/01/16 05:07:09;;;;;;;118.50;70.10;;;26.20;1715.20;;;;;;4919580;29;20391;-69
2021/01/16 05:09:39;;;;;;;123.68;74.38;;;26.50;1689.60;;;;;;4919719;29;20083;-69
2021/01/16 05:12:27;;;;;;;119.88;74.75;;;51.60;1638.40;;;;;;4919411;29;20475;-75
2021/01/16 05:15:06;;;;;;;111.25;68.25;;;51.80;1612.80;;;;;;4919447;29;20035;-76
2021/01/16 05:17:46;;;;;;;99.18;61.70;;;76.80;1587.20;;;;;;4919656;29;20175;-75
2021/01/16 05:20:13;;;;;;;105.82;59.97;;;76.90;1561.60;;;;;;4919536;29;20633;-74
2021/01/16 05:22:39;;;;;;;100.88;63.22;;;77.00;1561.60;;;;;;4919267;29;20391;-78
2021/01/16 05:25:07;;;;;;;110.10;68.53;;;76.80;1587.20;;;;;;4919366;29;20024;-77
2021/01/16 05:27:35;;;;;;;122.68;73.25;;;52.10;1612.80;;;;;;4919258;29;20032;-77
2021/01/16 05:30:07;;;;;;;114.07;68.93;;;51.90;1638.40;;;;;;4919641;29;20550;-76
2021/01/16 05:32:33;;;;;;;116.55;70.53;;;52.10;1638.40;;;;;;4919053;29;20029;-76
2021/01/16 05:35:22;;;;;;;119.35;75.00;;;76.80;1638.40;;;;;;4918839;29;20048;-77
2021/01/16 05:37:49;;;;;;;122.63;76.40;;;51.40;1715.20;;;;;;4919055;29;20025;-74
2021/01/16 05:40:17;;;;;;;112.78;70.25;;;26.50;1740.80;;;;;;4918902;29;20077;-73
2021/01/16 05:42:43;;;;;;;123.97;72.35;;;26.00;1792.00;;;;;;4919052;29;20039;-73
2021/01/16 05:45:11;;;;;;;115.20;67.75;;;25.80;1817.60;;;;;;4918815;29;20039;-71
2021/01/16 05:47:41;;;;;;;111.00;65.60;;;26.10;1817.60;;;;;;4918842;29;20024;-72
2021/01/16 05:50:10;;;;;;;105.55;58.80;;;51.20;1766.40;;;;;;4918912;29;20024;-71
2021/01/16 05:52:38;;;;;;;479.73;267.50;;;51.20;1766.40;;;;;;4918436;29;20047;-72
2021/01/16 05:55:06;;;;;;;220.57;125.85;;;26.30;1792.00;;;;;;4918812;29;20473;-71
2021/01/16 05:57:32;;;;;;;76.07;46.60;;;51.20;1766.40;;;;;;4918573;29;20032;-71
2021/01/16 05:59:59;;;;;;;88.03;50.95;;;26.10;1792.00;;;;;;4918959;29;20050;-72
2021/01/16 06:02:32;;;;;;;81.97;48.33;;;26.50;1766.40;;;;;;4918474;29;20016;-71
2021/01/16 06:04:59;;;;;;;97.38;58.80;;;26.20;1792.00;;;;;;4918444;29;20028;-71
2021/01/16 06:07:26;;;;;;;88.50;52.42;;;26.00;1817.60;;;;;;4918506;29;20031;-70
2021/01/16 06:09:53;;;;;;;87.97;56.38;;;;;;;;;;4918426;29;20131;-71
2021/01/16 06:12:21;;;;;;;92.53;67.40;;;51.40;1766.40;;;;;;4918497;29;20091;-71
2021/01/16 06:14:48;;;;;;;86.95;57.08;;;51.80;1715.20;;;;;;4918363;29;20114;-71
2021/01/16 06:17:16;;;;;;;86.80;56.03;;;51.90;1715.20;;;;;;4918452;29;20066;-69
2021/01/16 06:19:49;;;;;;;71.80;46.30;;;51.50;1766.40;;;;;;4918084;29;20035;-72
2021/01/16 06:22:17;;;;;;;71.28;47.30;;;26.40;1817.60;;;;;;4918349;29;20032;-72
2021/01/16 06:24:49;;;;;;;75.88;53.55;;;26.20;1843.20;;;;;;4918167;29;20020;-72
2021/01/16 06:27:24;;;;;;;97.90;63.15;;;26.00;1868.80;;;;;;4918200;29;20084;-71
2021/01/16 06:29:56;;;;;;;87.93;53.42;;;26.00;1868.80;;;;;;4918472;29;20024;-71
2021/01/16 06:32:23;;;;;;;114.22;70.32;;;26.10;1868.80;;;;;;4917784;29;20427;-71
2021/01/16 06:35:06;;;;;;;157.88;106.05;;;26.40;1843.20;;;;;;4917983;29;20082;-72
2021/01/16 06:37:31;;;;;;;106.07;63.75;;;51.30;1843.20;;;;;;4918310;29;20025;-70
2021/01/16 06:39:57;;;;;;;96.60;60.15;;;26.50;1843.20;;;;;;4917854;29;20344;-72
2021/01/16 06:42:28;;;;;;;121.63;84.32;;;26.40;1843.20;;;;;;4918201;29;20031;-71
2021/01/16 06:45:08;;;;;;;92.53;58.83;;;26.50;1868.80;;;;;;4917857;29;20479;-71
2021/01/16 06:47:35;;;;;;;103.32;65.60;;;;;;;;;;4917986;29;20439;-71
2021/01/16 06:50:02;;;;;;;112.00;68.60;;;77.00;1715.20;;;;;;4918026;29;20032;-71
2021/01/16 06:52:36;;;;;;;104.70;61.35;;;76.80;1715.20;;;;;;4917643;29;20495;-71
2021/01/16 06:55:05;;;;;;;80.03;49.05;;;77.20;1664.00;;;;;;4917790;29;20027;-71
2021/01/16 06:57:34;;;;;;;83.45;50.92;;;77.40;1638.40;;;;;;4917531;29;20047;-71
2021/01/16 07:00:01;;;;;;;82.90;52.15;;;77.40;1638.40;;;;;;4917596;29;20072;-72
2021/01/16 07:02:31;;;;;;;76.88;46.72;;;77.40;1638.40;;;;;;4917493;29;20028;-70
2021/01/16 07:04:59;;;;;;;76.35;46.38;;;77.30;1638.40;;;;;;4917388;29;20028;-71
2021/01/16 07:07:33;;;;;;;74.95;44.30;;;77.20;1638.40;;;;;;4917694;29;20040;-71
2021/01/16 07:10:01;;;;;;;114.35;68.47;;;76.90;1638.40;;;;;;4917428;29;20023;-71
2021/01/16 07:12:27;;;;;;;80.15;52.08;;;76.80;1638.40;;;;;;4917445;29;20036;-70
2021/01/16 07:14:53;;;;;;;85.78;50.88;;;77.20;1612.80;;;;;;4917221;29;20035;-71
2021/01/16 07:17:24;;;;;;;52.40;33.28;;;77.40;1587.20;;;;;;4917256;29;20024;-71
2021/01/16 07:19:51;;;;;;;75.43;44.00;;;77.40;1561.60;;;;;;4916240;29;20454;-70
2021/01/16 07:22:17;;;;;;;76.88;47.05;;;77.20;1587.20;;;;;;4917109;29;20032;-71
2021/01/16 07:24:45;;;;;;;155.70;91.15;;;77.30;1561.60;;;;;;4917150;29;20099;-71
2021/01/16 07:27:12;;;;;;;97.50;63.28;;;77.40;1587.20;;;;;;4917037;29;20152;-71
2021/01/16 07:29:42;;;;;;;56.95;40.90;;;77.40;1561.60;;;;;;4917185;29;20024;-71
2021/01/16 07:32:14;;;;;;;51.33;34.47;;;77.20;1561.60;;;;;;4916724;29;20119;-73
2021/01/16 07:34:49;;;;;;;52.53;36.60;;;77.20;1561.60;;;;;;4916631;29;20080;-75
2021/01/16 07:37:19;;;;;;;50.50;33.65;;;77.40;1561.60;;;;;;4916345;29;20056;-74
2021/01/16 07:39:45;;;;;;;40.33;28.75;;;77.40;1561.60;;;;;;4915996;29;20029;-74
2021/01/16 07:42:14;;;;;;;53.65;35.17;;;77.10;1536.00;;;;;;4916227;29;20064;-74
2021/01/16 07:44:46;;;;;;;95.35;54.25;;;77.20;1536.00;;;;;;4915991;29;20566;-74
2021/01/16 07:47:20;;;;;;;59.60;40.42;;;77.40;1536.00;;;;;;4914813;29;20051;-73
2021/01/16 07:49:57;;;;;;;67.72;41.95;;;77.20;1536.00;;;;;;4915973;29;20027;-73
2021/01/16 07:52:27;;;;;;;72.43;43.47;;;77.20;1536.00;;;;;;4914559;29;20174;-73
2021/01/16 07:55:09;;;;;;;61.30;37.08;;;77.70;1510.40;;;;;;4916189;29;20031;-73
2021/01/16 07:57:35;;;;;;;63.63;37.45;;;77.60;1510.40;;;;;;4915831;29;20039;-72
2021/01/16 08:00:07;;;;;;;72.80;44.17;;;102.40;1510.40;;;;;;4915731;29;20024;-71
2021/01/16 08:02:39;;;;;;;69.30;43.95;;;77.60;1510.40;;;;;;4916062;29;20390;-70
2021/01/16 08:05:26;;;;;;;73.90;42.53;;;77.60;1510.40;;;;;;4915606;29;20038;-71
2021/01/16 08:08:00;;;;;;;78.85;45.33;;;77.30;1510.40;;;;;;4915726;29;20028;-70
2021/01/16 08:10:26;;;;;;;81.03;47.33;;;76.80;1587.20;;;;;;4915969;29;20025;-70
2021/01/16 08:12:57;;;;;;;70.47;39.70;;;;;;;;;;4915680;29;20040;-71
2021/01/16 08:15:29;;;;;;;58.70;36.88;;;77.20;1536.00;;;;;;4915626;29;20028;-72
2021/01/16 08:17:58;;;;;;;59.97;34.00;;;77.50;1510.40;;;;;;4915518;29;20111;-71
2021/01/16 08:20:27;;;;;;;50.13;29.90;;;77.70;1484.80;;;;;;4915943;29;20016;-71
2021/01/16 08:22:56;;;;;;;62.72;31.83;;;77.60;1484.80;;;;;;4915736;29;20106;-71
2021/01/16 08:25:30;;;;;;;60.00;35.67;;;77.70;1484.80;;;;;;4915535;29;20024;-70
2021/01/16 08:28:01;;;;;;;62.08;37.83;;;77.50;1484.80;;;;;;4915666;29;20171;-70
2021/01/16 08:30:29;;;;;;;47.13;27.00;;;77.60;1484.80;;;;;;4916697;29;20039;-70
2021/01/16 08:33:07;;;;;;;47.42;29.67;;;77.70;1459.20;;;;;;4919144;29;20044;-72
2021/01/16 08:35:41;;;;;;;55.55;30.42;;;102.50;1408.00;;;;;;4897527;29;647882;-71
2021/01/16 08:38:16;;;;;;;61.75;28.88;;;102.60;1408.00;;;;;;4920084;29;20475;-72
2021/01/16 08:41:02;;;;;;;52.38;27.35;;;102.70;1408.00;;;;;;4920131;29;20099;-73
2021/01/16 08:43:30;;;;;;;54.33;31.85;;;102.60;1433.60;;;;;;4920208;29;20028;-71
2021/01/16 08:46:08;;;;;;;42.08;25.85;;;102.70;1408.00;;;;;;4919699;29;20076;-71
2021/01/16 08:48:34;;;;;;;42.63;22.65;;;102.70;1408.00;;;;;;4919854;29;20075;-70
2021/01/16 08:51:00;;;;;;;37.17;20.00;;;102.60;1433.60;;;;;;4919666;29;20036;-69
2021/01/16 08:53:26;;;;;;;45.30;25.75;;;102.40;1408.00;;;;;;4920110;29;20079;-72
2021/01/16 08:55:52;;;;;;;44.63;19.27;;;102.50;1408.00;;;;;;4919811;29;20028;-71
2021/01/16 08:58:18;;;;;;;55.40;23.15;;;102.40;1408.00;;;;;;4919638;29;20076;-71
2021/01/16 09:00:43;;;;;;;40.08;23.25;;;102.50;1408.00;;;;;;4919814;29;20062;-70
2021/01/16 09:03:16;;;;;;;42.55;23.15;;;102.60;1408.00;;;;;;4919702;29;20024;-71
2021/01/16 09:05:43;;;;;;;34.03;17.42;;;77.70;1408.00;;;;;;4919552;29;20079;-72
2021/01/16 09:08:23;;;;;;;27.73;16.45;;;77.50;1433.60;;;;;;4919549;29;20028;-71
2021/01/16 09:10:50;;;;;;;33.00;18.73;;;77.50;1408.00;;;;;;4919756;29;20079;-70
2021/01/16 09:13:25;;;;;;;33.45;18.58;;;77.70;1433.60;;;;;;4919503;29;20032;-70
2021/01/16 09:15:51;;;;;;;46.67;20.70;;;102.40;1408.00;;;;;;4919385;29;20487;-70
2021/01/16 09:18:17;;;;;;;58.38;25.73;;;102.70;1382.40;;;;;;4919352;29;20115;-70
2021/01/16 09:20:45;;;;;;;44.60;30.80;;;102.90;1356.80;;;;;;4919506;29;20028;-69
2021/01/16 09:23:19;;;;;;;70.32;32.70;;;103.00;1382.40;;;;;;4919491;29;20036;-70
2021/01/16 09:25:48;;;;;;;77.45;37.67;;;103.00;1382.40;;;;;;4933655;29;20047;-70
2021/01/16 09:28:14;;;;;;;52.65;25.35;;;103.10;1356.80;;;;;;4919308;29;20379;-73
2021/01/16 09:30:40;;;;;;;83.70;56.08;;;103.10;1382.40;;;;;;4919273;29;20035;-72
2021/01/16 09:33:25;;;;;;;115.55;70.03;;;103.00;1382.40;;;;;;4918784;29;20036;-72
2021/01/16 09:35:52;;;;;;;96.60;59.15;;;128.00;1356.80;;;;;;4918828;29;20052;-73
2021/01/16 09:38:21;;;;;;;100.30;55.33;;;103.20;1331.20;;;;;;4918974;29;20036;-74
2021/01/16 09:40:48;;;;;;;54.63;32.28;;;103.30;1356.80;;;;;;4918441;29;20024;-78
2021/01/16 09:43:14;;;;;;;51.97;35.30;;;;;;;;;;4919210;29;20032;-78
2021/01/16 09:45:59;;;;;;;61.10;36.42;;;103.30;1331.20;;;;;;4918714;29;20031;-78
2021/01/16 09:48:43;;;;;;;83.63;48.22;;;103.20;1331.20;;;;;;4919017;29;20163;-77
2021/01/16 09:51:10;;;;;;;71.25;36.45;;;;;;;;;;4918920;29;20027;-72
2021/01/16 09:53:37;;;;;;;63.75;36.50;;;;;;;;;;4918577;29;20063;-72
2021/01/16 09:56:03;;;;;;;56.70;38.78;;;;;;;;;;4918679;29;20024;-72
2021/01/16 09:58:35;;;;;;;47.83;28.35;;;;;;;;;;4918728;29;20039;-72
2021/01/16 10:01:23;;;;;;;56.63;37.85;;;;;;;;;;4918776;29;20035;-73
2021/01/16 10:03:50;;;;;;;50.75;28.73;;;;;;;;;;4918456;29;20613;-73
2021/01/16 10:06:18;;;;;;;47.60;28.15;;;;;;;;;;4918483;29;20082;-73
2021/01/16 10:08:45;;;;;;;46.88;26.92;;;;;;;;;;4918505;29;20024;-73
2021/01/16 10:11:12;;;;;;;59.22;32.63;;;;;;;;;;4918408;29;20386;-72
2021/01/16 10:13:39;;;;;;;49.60;32.00;;;;;;;;;;4918438;29;20162;-72
2021/01/16 10:16:09;;;;;;;96.10;68.00;;;;;;;;;;4918249;29;20110;-73
2021/01/16 10:18:36;;;;;;;134.10;96.28;;;;;;;;;;4918214;29;20107;-76
2021/01/16 10:21:09;;;;;;;87.95;56.10;;;;;;;;;;4918431;29;20024;-73
2021/01/16 10:23:44;;;;;;;69.70;42.50;;;;;;;;;;4918049;29;20035;-76
2021/01/16 10:26:11;;;;;;;67.03;38.58;;;;;;;;;;4918370;29;20226;-75
2021/01/16 10:28:39;;;;;;;64.32;30.88;;;;;;;;;;4918002;29;20032;-76
2021/01/16 10:31:06;;;;;;;52.03;29.85;;;;;;;;;;4918262;29;20383;-70
2021/01/16 10:33:36;;;;;;;70.03;34.25;;;;;;;;;;4917840;29;20452;-71
2021/01/16 10:36:07;;;;;;;68.43;36.80;;;;;;;;;;4917544;29;20071;-71
2021/01/16 10:38:40;;;;;;;51.25;29.85;;;;;;;;;;4918097;29;20083;-72
2021/01/16 10:41:10;;;;;;;69.78;40.00;;;;;;;;;;4917718;29;20039;-71
2021/01/16 10:43:36;;;;;;;79.68;40.67;;;;;;;;;;4917926;29;20050;-71
2021/01/16 10:46:07;;;;;;;60.42;32.72;;;;;;;;;;4917592;29;20028;-72
2021/01/16 10:48:37;;;;;;;56.05;30.38;;;;;;;;;;4917514;29;20028;-72
2021/01/16 10:51:09;;;;;;;50.22;29.42;;;128.10;1382.40;;;;;;4932332;29;20031;-71
2021/01/16 10:53:40;;;;;;;48.63;24.73;;;128.20;1433.60;;;;;;4917091;29;20416;-70
2021/01/16 10:56:13;;;;;;;38.35;25.05;;;;;;;;;;4917892;29;20084;-71
2021/01/16 10:58:40;;;;;;;52.80;30.77;;;;;;;;;;4917585;29;20499;-71
2021/01/16 11:01:08;;;;;;;45.28;28.98;;;;;;;;;;4917396;29;20095;-70
2021/01/16 11:03:34;;;;;;;57.42;30.75;;;;;;;;;;4917587;29;20024;-71
2021/01/16 11:06:06;;;;;;;68.45;32.90;;;179.20;1203.20;;;;;;4917160;29;20183;-70
2021/01/16 11:08:34;;;;;;;55.72;29.65;;;154.50;1228.80;;;;;;4917505;29;20542;-71
2021/01/16 11:11:00;;;;;;;48.60;27.27;;;154.40;1203.20;;;;;;4917426;29;20047;-71
2021/01/16 11:13:29;;;;;;;65.40;31.17;;;154.20;1228.80;;;;;;4916690;29;20087;-71
2021/01/16 11:15:57;;;;;;;59.88;33.05;;;153.90;1280.00;;;;;;4916254;29;20020;-73
2021/01/16 11:18:31;;;;;;;60.33;30.52;;;154.00;1254.40;;;;;;4916215;29;20028;-70
2021/01/16 11:21:02;;;;;;;49.05;23.95;;;153.90;1254.40;;;;;;4915247;29;20031;-69
2021/01/16 11:23:43;;;;;;;50.60;28.27;;;153.70;1228.80;;;;;;4916185;29;20028;-69
2021/01/16 11:26:10;;;;;;;43.03;27.55;;;128.90;1280.00;;;;;;4912484;29;20086;-69
2021/01/16 11:28:53;;;;;;;53.28;28.25;;;128.90;1254.40;;;;;;4915348;29;20061;-69
2021/01/16 11:31:27;;;;;;;51.30;25.80;;;153.60;1254.40;;;;;;4916207;29;20032;-69
2021/01/16 11:34:21;;;;;;;44.00;24.67;;;153.60;1254.40;;;;;;4916102;29;20114;-69
2021/01/16 11:36:58;;;;;;;44.90;26.38;;;153.80;1228.80;;;;;;4914726;29;20059;-69
2021/01/16 11:39:50;;;;;;;45.75;27.23;;;153.80;1203.20;;;;;;4916049;29;20030;-69
2021/01/16 11:42:20;;;;;;;51.33;27.63;;;153.90;1203.20;;;;;;4916122;29;20024;-71
2021/01/16 11:45:00;;;;;;;45.53;22.85;;;153.80;1203.20;;;;;;4914982;29;20038;-69
2021/01/16 11:47:28;;;;;;;58.78;27.85;;;154.00;1177.60;;;;;;4916015;29;20495;-70
2021/01/16 11:49:55;;;;;;;61.80;31.88;;;154.00;1177.60;;;;;;4924118;29;20045;-70
2021/01/16 11:52:21;;;;;;;55.53;27.75;;;154.10;1177.60;;;;;;4935088;29;20043;-68
2021/01/16 11:54:50;;;;;;;54.20;32.38;;;154.20;1177.60;;;;;;4924776;29;20182;-70
2021/01/16 11:57:22;;;;;;;47.58;26.90;;;179.20;1126.40;;;;;;4916004;29;20024;-70
2021/01/16 11:59:49;;;;;;;38.35;23.70;;;154.50;1126.40;;;;;;4915774;29;20089;-69
2021/01/16 12:02:15;;;;;;;42.72;22.52;;;154.40;1126.40;;;;;;4916325;29;20028;-71
2021/01/16 12:04:45;;;;;;;50.42;27.13;;;179.70;1049.60;;;;;;4915968;29;20021;-70
2021/01/16 12:07:17;;;;;;;73.07;41.97;;;205.30;998.40;;;;;;4916514;29;20506;-72
2021/01/16 12:09:44;;;;;;;51.15;26.63;;;230.70;947.20;;;;;;4916737;29;20446;-72
2021/01/16 12:12:11;;;;;;;61.35;32.60;;;231.00;896.00;;;;;;4916185;29;20062;-69
2021/01/16 12:14:38;;;;;;;51.72;28.85;;;256.50;844.80;;;;;;4916373;29;20031;-69
2021/01/16 12:17:09;;;;;;;52.05;33.25;;;256.00;870.40;;;;;;4916348;29;20021;-70
2021/01/16 12:19:35;;;;;;;60.93;36.77;;;231.00;870.40;;;;;;4916267;29;20072;-70
2021/01/16 12:22:07;;;;;;;56.60;35.05;;;205.70;947.20;;;;;;4915631;29;20099;-69
2021/01/16 12:24:34;;;;;;;45.28;27.65;;;230.40;896.00;;;;;;4916028;29;20036;-69
2021/01/16 12:27:02;;;;;;;48.53;32.47;;;205.70;921.60;;;;;;4916388;29;20028;-70
2021/01/16 12:29:40;;;;;;;35.60;23.35;;;205.50;947.20;;;;;;4915889;29;20028;-70